sensor_id;sensor_type;location;lat;lon;timestamp;P1;durP1;ratioP1;P2;durP2;ratioP2
70953;SDS011;58618;47.490;8.736;2023-08-30T00:00:28;7.88;;;4.72;;
70953;SDS011;58618;47.490;8.736;2023-08-30T00:03:15;7.93;;;4.60;;
70953;SDS011;58618;47.490;8.736;2023-08-30T00:06:03;8.07;;;5.18;;
70953;SDS011;58618;47.490;8.736;2023-08-30T00:08:50;9.43;;;4.47;;
70953;SDS011;58618;47.490;8.736;2023-08-30T00:11:38;6.15;;;4.45;;
70953;SDS011;58618;47.490;8.736;2023-08-30T00:14:26;7.25;;;4.90;;
70953;SDS011;58618;47.490;8.736;2023-08-30T00:17:14;7.07;;;4.20;;
70953;SDS011;58618;47.490;8.736;2023-08-30T00:20:01;6.82;;;4.50;;
70953;SDS011;58618;47.490;8.736;2023-08-30T00:22:49;8.63;;;4.73;;
70953;SDS011;58618;47.490;8.736;2023-08-30T00:25:36;7.40;;;4.97;;
70953;SDS011;58618;47.490;8.736;2023-08-30T00:28:23;7.00;;;4.90;;
70953;SDS011;58618;47.490;8.736;2023-08-30T00:31:12;7.05;;;4.78;;
70953;SDS011;58618;47.490;8.736;2023-08-30T00:33:59;8.05;;;4.72;;
70953;SDS011;58618;47.490;8.736;2023-08-30T00:36:47;7.53;;;5.20;;
70953;SDS011;58618;47.490;8.736;2023-08-30T00:39:37;8.18;;;5.20;;
70953;SDS011;58618;47.490;8.736;2023-08-30T00:42:24;8.15;;;5.10;;
70953;SDS011;58618;47.490;8.736;2023-08-30T00:45:12;7.40;;;5.18;;
70953;SDS011;58618;47.490;8.736;2023-08-30T00:48:00;8.15;;;5.18;;
70953;SDS011;58618;47.490;8.736;2023-08-30T00:50:47;7.63;;;4.93;;
70953;SDS011;58618;47.490;8.736;2023-08-30T00:53:35;8.45;;;5.80;;
70953;SDS011;58618;47.490;8.736;2023-08-30T00:56:22;10.73;;;5.57;;
70953;SDS011;58618;47.490;8.736;2023-08-30T00:59:10;8.00;;;5.43;;
70953;SDS011;58618;47.490;8.736;2023-08-30T01:01:57;8.65;;;5.15;;
70953;SDS011;58618;47.490;8.736;2023-08-30T01:04:48;7.70;;;5.30;;
70953;SDS011;58618;47.490;8.736;2023-08-30T01:07:36;9.75;;;5.10;;
70953;SDS011;58618;47.490;8.736;2023-08-30T01:10:26;8.98;;;5.22;;
70953;SDS011;58618;47.490;8.736;2023-08-30T01:13:30;7.80;;;4.95;;
70953;SDS011;58618;47.490;8.736;2023-08-30T01:16:20;8.00;;;5.35;;
70953;SDS011;58618;47.490;8.736;2023-08-30T01:22:29;10.32;;;5.47;;
70953;SDS011;58618;47.490;8.736;2023-08-30T01:25:31;8.85;;;5.03;;
70953;SDS011;58618;47.490;8.736;2023-08-30T01:28:24;8.35;;;5.15;;
70953;SDS011;58618;47.490;8.736;2023-08-30T01:31:13;8.60;;;5.30;;
70953;SDS011;58618;47.490;8.736;2023-08-30T01:34:02;7.07;;;4.77;;
70953;SDS011;58618;47.490;8.736;2023-08-30T01:36:50;9.38;;;4.85;;
70953;SDS011;58618;47.490;8.736;2023-08-30T01:39:38;8.05;;;5.50;;
70953;SDS011;58618;47.490;8.736;2023-08-30T01:42:27;7.55;;;5.07;;
70953;SDS011;58618;47.490;8.736;2023-08-30T01:45:16;7.95;;;5.03;;
70953;SDS011;58618;47.490;8.736;2023-08-30T01:48:05;13.03;;;5.00;;
70953;SDS011;58618;47.490;8.736;2023-08-30T01:50:56;12.07;;;5.00;;
70953;SDS011;58618;47.490;8.736;2023-08-30T01:53:44;8.85;;;5.60;;
70953;SDS011;58618;47.490;8.736;2023-08-30T01:56:34;9.05;;;4.90;;
70953;SDS011;58618;47.490;8.736;2023-08-30T01:59:21;7.50;;;5.10;;
70953;SDS011;58618;47.490;8.736;2023-08-30T02:02:10;9.13;;;5.30;;
70953;SDS011;58618;47.490;8.736;2023-08-30T02:04:57;9.20;;;5.20;;
70953;SDS011;58618;47.490;8.736;2023-08-30T02:07:47;8.07;;;5.25;;
70953;SDS011;58618;47.490;8.736;2023-08-30T02:10:40;8.48;;;4.90;;
70953;SDS011;58618;47.490;8.736;2023-08-30T02:13:31;7.68;;;5.30;;
70953;SDS011;58618;47.490;8.736;2023-08-30T02:16:21;8.07;;;4.97;;
70953;SDS011;58618;47.490;8.736;2023-08-30T02:19:11;10.32;;;5.13;;
70953;SDS011;58618;47.490;8.736;2023-08-30T02:22:02;8.50;;;5.43;;
70953;SDS011;58618;47.490;8.736;2023-08-30T02:24:50;7.50;;;5.13;;
70953;SDS011;58618;47.490;8.736;2023-08-30T02:27:37;7.20;;;4.85;;
70953;SDS011;58618;47.490;8.736;2023-08-30T02:30:24;7.67;;;4.83;;
70953;SDS011;58618;47.490;8.736;2023-08-30T02:33:12;8.00;;;4.55;;
70953;SDS011;58618;47.490;8.736;2023-08-30T02:36:01;6.55;;;4.80;;
70953;SDS011;58618;47.490;8.736;2023-08-30T02:38:48;6.32;;;4.97;;
70953;SDS011;58618;47.490;8.736;2023-08-30T02:41:35;8.93;;;5.30;;
70953;SDS011;58618;47.490;8.736;2023-08-30T02:44:23;9.20;;;5.00;;
70953;SDS011;58618;47.490;8.736;2023-08-30T02:47:10;7.65;;;5.18;;
70953;SDS011;58618;47.490;8.736;2023-08-30T02:49:57;9.50;;;5.38;;
70953;SDS011;58618;47.490;8.736;2023-08-30T02:52:46;7.53;;;5.45;;
70953;SDS011;58618;47.490;8.736;2023-08-30T02:55:33;7.95;;;5.50;;
70953;SDS011;58618;47.490;8.736;2023-08-30T02:58:21;8.03;;;4.57;;
70953;SDS011;58618;47.490;8.736;2023-08-30T03:01:08;7.82;;;4.82;;
70953;SDS011;58618;47.490;8.736;2023-08-30T03:03:55;9.18;;;4.95;;
70953;SDS011;58618;47.490;8.736;2023-08-30T03:06:42;8.30;;;5.20;;
70953;SDS011;58618;47.490;8.736;2023-08-30T03:09:31;8.80;;;5.78;;
70953;SDS011;58618;47.490;8.736;2023-08-30T03:12:18;8.17;;;5.67;;
70953;SDS011;58618;47.490;8.736;2023-08-30T03:15:06;7.95;;;5.32;;
70953;SDS011;58618;47.490;8.736;2023-08-30T03:17:53;10.40;;;5.57;;
70953;SDS011;58618;47.490;8.736;2023-08-30T03:20:41;9.10;;;5.43;;
70953;SDS011;58618;47.490;8.736;2023-08-30T03:23:28;9.10;;;5.68;;
70953;SDS011;58618;47.490;8.736;2023-08-30T03:26:17;10.17;;;5.80;;
70953;SDS011;58618;47.490;8.736;2023-08-30T03:29:04;9.02;;;5.38;;
70953;SDS011;58618;47.490;8.736;2023-08-30T03:31:52;7.80;;;5.55;;
70953;SDS011;58618;47.490;8.736;2023-08-30T03:34:39;7.75;;;5.38;;
70953;SDS011;58618;47.490;8.736;2023-08-30T03:37:26;13.65;;;5.35;;
70953;SDS011;58618;47.490;8.736;2023-08-30T03:40:13;9.20;;;5.13;;
70953;SDS011;58618;47.490;8.736;2023-08-30T03:43:02;7.82;;;5.00;;
70953;SDS011;58618;47.490;8.736;2023-08-30T03:45:50;7.82;;;5.03;;
70953;SDS011;58618;47.490;8.736;2023-08-30T03:48:38;8.02;;;5.40;;
70953;SDS011;58618;47.490;8.736;2023-08-30T03:51:25;10.98;;;5.95;;
70953;SDS011;58618;47.490;8.736;2023-08-30T03:54:12;8.80;;;5.70;;
70953;SDS011;58618;47.490;8.736;2023-08-30T03:57:02;11.05;;;5.55;;
70953;SDS011;58618;47.490;8.736;2023-08-30T03:59:51;9.65;;;6.03;;
70953;SDS011;58618;47.490;8.736;2023-08-30T04:02:38;10.25;;;5.88;;
70953;SDS011;58618;47.490;8.736;2023-08-30T04:05:25;10.27;;;6.03;;
70953;SDS011;58618;47.490;8.736;2023-08-30T04:08:13;10.00;;;5.53;;
70953;SDS011;58618;47.490;8.736;2023-08-30T04:11:01;9.75;;;6.10;;
70953;SDS011;58618;47.490;8.736;2023-08-30T04:13:49;10.10;;;5.85;;
70953;SDS011;58618;47.490;8.736;2023-08-30T04:16:39;8.32;;;5.13;;
70953;SDS011;58618;47.490;8.736;2023-08-30T04:19:26;8.55;;;5.57;;
70953;SDS011;58618;47.490;8.736;2023-08-30T04:22:14;7.87;;;5.20;;
70953;SDS011;58618;47.490;8.736;2023-08-30T04:25:01;11.05;;;5.55;;
70953;SDS011;58618;47.490;8.736;2023-08-30T04:27:49;7.75;;;5.40;;
70953;SDS011;58618;47.490;8.736;2023-08-30T04:30:36;6.90;;;4.75;;
70953;SDS011;58618;47.490;8.736;2023-08-30T04:33:25;8.90;;;4.60;;
70953;SDS011;58618;47.490;8.736;2023-08-30T04:36:13;6.27;;;4.70;;
70953;SDS011;58618;47.490;8.736;2023-08-30T04:39:00;7.75;;;5.47;;
70953;SDS011;58618;47.490;8.736;2023-08-30T04:41:48;6.53;;;4.78;;
70953;SDS011;58618;47.490;8.736;2023-08-30T04:44:35;7.20;;;4.35;;
70953;SDS011;58618;47.490;8.736;2023-08-30T04:47:22;7.97;;;4.75;;
70953;SDS011;58618;47.490;8.736;2023-08-30T04:50:11;5.07;;;4.03;;
70953;SDS011;58618;47.490;8.736;2023-08-30T04:52:58;8.70;;;4.57;;
70953;SDS011;58618;47.490;8.736;2023-08-30T04:55:46;8.88;;;4.43;;
70953;SDS011;58618;47.490;8.736;2023-08-30T04:58:33;6.38;;;4.20;;
70953;SDS011;58618;47.490;8.736;2023-08-30T05:01:21;8.48;;;4.30;;
70953;SDS011;58618;47.490;8.736;2023-08-30T05:04:09;7.53;;;4.30;;
70953;SDS011;58618;47.490;8.736;2023-08-30T05:06:57;8.05;;;4.40;;
70953;SDS011;58618;47.490;8.736;2023-08-30T05:09:45;8.07;;;5.00;;
70953;SDS011;58618;47.490;8.736;2023-08-30T05:12:32;5.13;;;3.92;;
70953;SDS011;58618;47.490;8.736;2023-08-30T05:15:20;9.32;;;4.80;;
70953;SDS011;58618;47.490;8.736;2023-08-30T05:18:08;9.77;;;5.17;;
70953;SDS011;58618;47.490;8.736;2023-08-30T05:20:55;8.18;;;5.65;;
70953;SDS011;58618;47.490;8.736;2023-08-30T05:23:44;8.48;;;5.55;;
70953;SDS011;58618;47.490;8.736;2023-08-30T05:26:32;10.15;;;5.13;;
70953;SDS011;58618;47.490;8.736;2023-08-30T05:29:19;9.45;;;5.32;;
70953;SDS011;58618;47.490;8.736;2023-08-30T05:32:07;7.20;;;4.83;;
70953;SDS011;58618;47.490;8.736;2023-08-30T05:34:54;9.15;;;5.25;;
70953;SDS011;58618;47.490;8.736;2023-08-30T05:37:41;7.70;;;5.45;;
70953;SDS011;58618;47.490;8.736;2023-08-30T05:40:30;9.07;;;5.53;;
70953;SDS011;58618;47.490;8.736;2023-08-30T05:43:17;8.48;;;5.72;;
70953;SDS011;58618;47.490;8.736;2023-08-30T05:46:04;8.33;;;5.17;;
70953;SDS011;58618;47.490;8.736;2023-08-30T05:48:58;7.30;;;5.30;;
70953;SDS011;58618;47.490;8.736;2023-08-30T05:51:46;7.95;;;5.15;;
70953;SDS011;58618;47.490;8.736;2023-08-30T05:54:34;7.55;;;5.40;;
70953;SDS011;58618;47.490;8.736;2023-08-30T05:57:23;7.90;;;4.57;;
70953;SDS011;58618;47.490;8.736;2023-08-30T06:00:11;6.30;;;4.07;;
70953;SDS011;58618;47.490;8.736;2023-08-30T06:03:00;6.97;;;3.78;;
70953;SDS011;58618;47.490;8.736;2023-08-30T06:05:48;6.75;;;4.55;;
70953;SDS011;58618;47.490;8.736;2023-08-30T06:08:35;7.25;;;4.25;;
70953;SDS011;58618;47.490;8.736;2023-08-30T06:11:23;6.60;;;4.07;;
70953;SDS011;58618;47.490;8.736;2023-08-30T06:14:12;6.67;;;4.13;;
70953;SDS011;58618;47.490;8.736;2023-08-30T06:16:59;5.55;;;4.32;;
70953;SDS011;58618;47.490;8.736;2023-08-30T06:19:46;6.25;;;4.00;;
70953;SDS011;58618;47.490;8.736;2023-08-30T06:22:34;5.30;;;4.00;;
70953;SDS011;58618;47.490;8.736;2023-08-30T06:25:21;6.93;;;4.82;;
70953;SDS011;58618;47.490;8.736;2023-08-30T06:28:09;8.10;;;4.70;;
70953;SDS011;58618;47.490;8.736;2023-08-30T06:30:58;6.60;;;5.22;;
70953;SDS011;58618;47.490;8.736;2023-08-30T06:33:45;14.55;;;4.88;;
70953;SDS011;58618;47.490;8.736;2023-08-30T06:36:34;6.90;;;4.68;;
70953;SDS011;58618;47.490;8.736;2023-08-30T06:39:21;6.80;;;4.90;;
70953;SDS011;58618;47.490;8.736;2023-08-30T06:42:08;7.00;;;4.30;;
70953;SDS011;58618;47.490;8.736;2023-08-30T06:44:56;5.10;;;3.75;;
70953;SDS011;58618;47.490;8.736;2023-08-30T06:47:44;5.10;;;3.38;;
70953;SDS011;58618;47.490;8.736;2023-08-30T06:50:31;3.72;;;3.30;;
70953;SDS011;58618;47.490;8.736;2023-08-30T06:53:19;4.05;;;3.20;;
70953;SDS011;58618;47.490;8.736;2023-08-30T06:56:06;5.83;;;3.00;;
70953;SDS011;58618;47.490;8.736;2023-08-30T06:58:54;3.28;;;2.75;;
70953;SDS011;58618;47.490;8.736;2023-08-30T07:01:41;2.80;;;2.50;;
70953;SDS011;58618;47.490;8.736;2023-08-30T07:04:30;2.33;;;1.83;;
70953;SDS011;58618;47.490;8.736;2023-08-30T07:07:17;2.75;;;1.90;;
70953;SDS011;58618;47.490;8.736;2023-08-30T07:10:04;2.20;;;1.60;;
70953;SDS011;58618;47.490;8.736;2023-08-30T07:12:52;2.13;;;1.75;;
70953;SDS011;58618;47.490;8.736;2023-08-30T07:15:40;2.00;;;1.70;;
70953;SDS011;58618;47.490;8.736;2023-08-30T07:18:27;1.98;;;1.67;;
70953;SDS011;58618;47.490;8.736;2023-08-30T07:21:16;1.70;;;1.60;;
70953;SDS011;58618;47.490;8.736;2023-08-30T07:24:04;2.10;;;1.60;;
70953;SDS011;58618;47.490;8.736;2023-08-30T07:26:52;2.53;;;1.40;;
70953;SDS011;58618;47.490;8.736;2023-08-30T07:29:40;1.70;;;1.40;;
70953;SDS011;58618;47.490;8.736;2023-08-30T07:32:27;1.80;;;1.52;;
70953;SDS011;58618;47.490;8.736;2023-08-30T07:35:15;1.85;;;1.50;;
70953;SDS011;58618;47.490;8.736;2023-08-30T07:38:04;1.77;;;1.53;;
70953;SDS011;58618;47.490;8.736;2023-08-30T07:40:53;1.63;;;1.38;;
70953;SDS011;58618;47.490;8.736;2023-08-30T07:43:40;3.13;;;1.50;;
70953;SDS011;58618;47.490;8.736;2023-08-30T07:46:27;2.30;;;1.63;;
70953;SDS011;58618;47.490;8.736;2023-08-30T07:49:15;1.90;;;1.60;;
70953;SDS011;58618;47.490;8.736;2023-08-30T07:52:02;1.67;;;1.33;;
70953;SDS011;58618;47.490;8.736;2023-08-30T07:54:51;1.58;;;1.13;;
70953;SDS011;58618;47.490;8.736;2023-08-30T07:57:38;1.75;;;1.40;;
70953;SDS011;58618;47.490;8.736;2023-08-30T08:00:26;1.80;;;1.30;;
70953;SDS011;58618;47.490;8.736;2023-08-30T08:03:13;2.25;;;1.50;;
70953;SDS011;58618;47.490;8.736;2023-08-30T08:06:00;1.73;;;1.50;;
70953;SDS011;58618;47.490;8.736;2023-08-30T08:08:48;2.38;;;1.88;;
70953;SDS011;58618;47.490;8.736;2023-08-30T08:11:36;2.08;;;1.52;;
70953;SDS011;58618;47.490;8.736;2023-08-30T08:14:25;1.80;;;1.45;;
70953;SDS011;58618;47.490;8.736;2023-08-30T08:17:13;1.85;;;1.70;;
70953;SDS011;58618;47.490;8.736;2023-08-30T08:20:00;2.57;;;2.10;;
70953;SDS011;58618;47.490;8.736;2023-08-30T08:22:47;3.92;;;2.15;;
70953;SDS011;58618;47.490;8.736;2023-08-30T08:25:34;4.38;;;2.45;;
70953;SDS011;58618;47.490;8.736;2023-08-30T08:28:23;3.35;;;2.50;;
70953;SDS011;58618;47.490;8.736;2023-08-30T08:31:10;5.53;;;2.30;;
70953;SDS011;58618;47.490;8.736;2023-08-30T08:34:08;2.20;;;1.93;;
70953;SDS011;58618;47.490;8.736;2023-08-30T08:36:56;2.85;;;2.00;;
70953;SDS011;58618;47.490;8.736;2023-08-30T08:39:44;2.83;;;1.88;;
70953;SDS011;58618;47.490;8.736;2023-08-30T08:42:32;2.20;;;2.00;;
70953;SDS011;58618;47.490;8.736;2023-08-30T08:45:21;3.65;;;1.90;;
70953;SDS011;58618;47.490;8.736;2023-08-30T08:48:09;2.60;;;2.07;;
70953;SDS011;58618;47.490;8.736;2023-08-30T08:50:57;2.38;;;1.90;;
70953;SDS011;58618;47.490;8.736;2023-08-30T08:53:44;1.85;;;1.60;;
70953;SDS011;58618;47.490;8.736;2023-08-30T08:56:32;1.98;;;1.77;;
70953;SDS011;58618;47.490;8.736;2023-08-30T08:59:20;5.53;;;2.05;;
70953;SDS011;58618;47.490;8.736;2023-08-30T09:02:09;1.70;;;1.60;;
70953;SDS011;58618;47.490;8.736;2023-08-30T09:04:59;7.57;;;2.10;;
70953;SDS011;58618;47.490;8.736;2023-08-30T09:07:47;1.98;;;1.60;;
70953;SDS011;58618;47.490;8.736;2023-08-30T09:10:39;1.83;;;1.50;;
70953;SDS011;58618;47.490;8.736;2023-08-30T09:13:26;2.60;;;1.60;;
70953;SDS011;58618;47.490;8.736;2023-08-30T09:16:16;4.83;;;1.70;;
70953;SDS011;58618;47.490;8.736;2023-08-30T09:19:05;1.70;;;1.50;;
70953;SDS011;58618;47.490;8.736;2023-08-30T09:21:53;2.67;;;1.58;;
70953;SDS011;58618;47.490;8.736;2023-08-30T09:24:41;2.42;;;1.42;;
70953;SDS011;58618;47.490;8.736;2023-08-30T09:27:31;1.58;;;1.42;;
70953;SDS011;58618;47.490;8.736;2023-08-30T09:30:21;2.00;;;1.27;;
70953;SDS011;58618;47.490;8.736;2023-08-30T09:33:08;3.50;;;1.40;;
70953;SDS011;58618;47.490;8.736;2023-08-30T09:35:57;1.63;;;1.52;;
70953;SDS011;58618;47.490;8.736;2023-08-30T09:38:48;1.60;;;1.50;;
70953;SDS011;58618;47.490;8.736;2023-08-30T09:41:36;1.98;;;1.52;;
70953;SDS011;58618;47.490;8.736;2023-08-30T09:44:29;2.10;;;1.50;;
70953;SDS011;58618;47.490;8.736;2023-08-30T09:47:16;4.15;;;2.35;;
70953;SDS011;58618;47.490;8.736;2023-08-30T09:50:04;2.72;;;2.42;;
70953;SDS011;58618;47.490;8.736;2023-08-30T09:52:53;2.92;;;2.63;;
70953;SDS011;58618;47.490;8.736;2023-08-30T09:55:41;3.50;;;3.20;;
70953;SDS011;58618;47.490;8.736;2023-08-30T09:58:29;5.57;;;3.67;;
70953;SDS011;58618;47.490;8.736;2023-08-30T10:01:17;4.95;;;3.83;;
70953;SDS011;58618;47.490;8.736;2023-08-30T10:04:06;4.35;;;3.78;;
70953;SDS011;58618;47.490;8.736;2023-08-30T10:06:55;4.25;;;3.78;;
70953;SDS011;58618;47.490;8.736;2023-08-30T10:09:45;4.70;;;4.20;;
70953;SDS011;58618;47.490;8.736;2023-08-30T10:12:34;5.80;;;4.17;;
70953;SDS011;58618;47.490;8.736;2023-08-30T10:15:22;4.40;;;4.00;;
70953;SDS011;58618;47.490;8.736;2023-08-30T10:18:13;5.28;;;4.28;;
70953;SDS011;58618;47.490;8.736;2023-08-30T10:21:06;4.13;;;3.65;;
70953;SDS011;58618;47.490;8.736;2023-08-30T10:23:57;3.88;;;3.17;;
70953;SDS011;58618;47.490;8.736;2023-08-30T10:26:48;3.73;;;2.70;;
70953;SDS011;58618;47.490;8.736;2023-08-30T10:29:36;3.05;;;2.75;;
70953;SDS011;58618;47.490;8.736;2023-08-30T10:32:26;2.55;;;2.30;;
70953;SDS011;58618;47.490;8.736;2023-08-30T10:35:14;2.90;;;2.30;;
70953;SDS011;58618;47.490;8.736;2023-08-30T10:38:04;3.50;;;2.35;;
70953;SDS011;58618;47.490;8.736;2023-08-30T10:40:52;2.37;;;1.90;;
70953;SDS011;58618;47.490;8.736;2023-08-30T10:43:41;3.75;;;2.25;;
70953;SDS011;58618;47.490;8.736;2023-08-30T10:46:29;2.58;;;2.17;;
70953;SDS011;58618;47.490;8.736;2023-08-30T10:49:18;2.45;;;2.20;;
70953;SDS011;58618;47.490;8.736;2023-08-30T10:52:05;2.95;;;2.08;;
70953;SDS011;58618;47.490;8.736;2023-08-30T10:55:05;3.43;;;2.07;;
70953;SDS011;58618;47.490;8.736;2023-08-30T10:58:00;2.42;;;2.13;;
70953;SDS011;58618;47.490;8.736;2023-08-30T11:00:49;2.08;;;1.77;;
70953;SDS011;58618;47.490;8.736;2023-08-30T11:03:37;1.95;;;1.70;;
70953;SDS011;58618;47.490;8.736;2023-08-30T11:06:25;1.65;;;1.52;;
70953;SDS011;58618;47.490;8.736;2023-08-30T11:09:13;2.83;;;1.67;;
70953;SDS011;58618;47.490;8.736;2023-08-30T11:12:04;3.15;;;2.03;;
70953;SDS011;58618;47.490;8.736;2023-08-30T11:14:52;2.13;;;1.90;;
70953;SDS011;58618;47.490;8.736;2023-08-30T11:17:41;1.70;;;1.55;;
70953;SDS011;58618;47.490;8.736;2023-08-30T11:20:29;2.22;;;1.90;;
70953;SDS011;58618;47.490;8.736;2023-08-30T11:23:16;2.00;;;1.50;;
70953;SDS011;58618;47.490;8.736;2023-08-30T11:26:03;1.77;;;1.63;;
70953;SDS011;58618;47.490;8.736;2023-08-30T11:28:51;3.78;;;2.10;;
70953;SDS011;58618;47.490;8.736;2023-08-30T11:31:38;4.53;;;2.20;;
70953;SDS011;58618;47.490;8.736;2023-08-30T11:34:27;2.72;;;2.13;;
70953;SDS011;58618;47.490;8.736;2023-08-30T11:37:14;3.77;;;1.90;;
70953;SDS011;58618;47.490;8.736;2023-08-30T11:40:02;2.58;;;1.80;;
70953;SDS011;58618;47.490;8.736;2023-08-30T11:42:52;8.20;;;2.00;;
70953;SDS011;58618;47.490;8.736;2023-08-30T11:45:39;2.22;;;1.70;;
70953;SDS011;58618;47.490;8.736;2023-08-30T11:48:26;2.60;;;1.70;;
70953;SDS011;58618;47.490;8.736;2023-08-30T11:51:16;2.63;;;1.60;;
70953;SDS011;58618;47.490;8.736;2023-08-30T11:54:07;3.15;;;1.73;;
70953;SDS011;58618;47.490;8.736;2023-08-30T11:56:55;2.63;;;1.98;;
70953;SDS011;58618;47.490;8.736;2023-08-30T11:59:42;1.80;;;1.55;;
70953;SDS011;58618;47.490;8.736;2023-08-30T12:02:29;2.40;;;1.80;;
70953;SDS011;58618;47.490;8.736;2023-08-30T12:05:17;2.97;;;1.97;;
70953;SDS011;58618;47.490;8.736;2023-08-30T12:08:05;2.83;;;1.77;;
70953;SDS011;58618;47.490;8.736;2023-08-30T12:10:53;2.35;;;1.75;;
70953;SDS011;58618;47.490;8.736;2023-08-30T12:13:41;2.58;;;1.73;;
70953;SDS011;58618;47.490;8.736;2023-08-30T12:16:28;2.30;;;2.03;;
70953;SDS011;58618;47.490;8.736;2023-08-30T12:19:15;2.00;;;1.70;;
70953;SDS011;58618;47.490;8.736;2023-08-30T12:22:04;2.97;;;1.80;;
70953;SDS011;58618;47.490;8.736;2023-08-30T12:24:53;2.00;;;1.80;;
70953;SDS011;58618;47.490;8.736;2023-08-30T12:27:40;1.90;;;1.70;;
70953;SDS011;58618;47.490;8.736;2023-08-30T12:30:27;3.55;;;1.88;;
70953;SDS011;58618;47.490;8.736;2023-08-30T12:33:15;3.90;;;2.00;;
70953;SDS011;58618;47.490;8.736;2023-08-30T12:36:03;5.38;;;1.95;;
70953;SDS011;58618;47.490;8.736;2023-08-30T12:38:51;2.30;;;1.80;;
70953;SDS011;58618;47.490;8.736;2023-08-30T12:41:39;2.75;;;1.60;;
70953;SDS011;58618;47.490;8.736;2023-08-30T12:44:28;2.13;;;1.80;;
70953;SDS011;58618;47.490;8.736;2023-08-30T12:47:16;3.53;;;1.67;;
70953;SDS011;58618;47.490;8.736;2023-08-30T12:50:03;1.90;;;1.70;;
70953;SDS011;58618;47.490;8.736;2023-08-30T12:52:51;3.05;;;1.70;;
70953;SDS011;58618;47.490;8.736;2023-08-30T12:55:38;2.13;;;1.92;;
70953;SDS011;58618;47.490;8.736;2023-08-30T12:58:27;3.53;;;2.00;;
70953;SDS011;58618;47.490;8.736;2023-08-30T13:01:14;2.63;;;1.87;;
70953;SDS011;58618;47.490;8.736;2023-08-30T13:04:02;3.08;;;1.70;;
70953;SDS011;58618;47.490;8.736;2023-08-30T13:06:50;2.25;;;1.90;;
70953;SDS011;58618;47.490;8.736;2023-08-30T13:09:38;2.10;;;1.83;;
70953;SDS011;58618;47.490;8.736;2023-08-30T13:12:25;2.28;;;2.03;;
70953;SDS011;58618;47.490;8.736;2023-08-30T13:15:13;3.33;;;1.80;;
70953;SDS011;58618;47.490;8.736;2023-08-30T13:18:01;2.65;;;2.10;;
70953;SDS011;58618;47.490;8.736;2023-08-30T13:20:48;2.97;;;1.90;;
70953;SDS011;58618;47.490;8.736;2023-08-30T13:23:36;3.00;;;1.90;;
70953;SDS011;58618;47.490;8.736;2023-08-30T13:26:23;3.33;;;2.10;;
70953;SDS011;58618;47.490;8.736;2023-08-30T13:29:10;2.93;;;1.80;;
70953;SDS011;58618;47.490;8.736;2023-08-30T13:31:59;2.50;;;1.90;;
70953;SDS011;58618;47.490;8.736;2023-08-30T13:34:46;3.45;;;1.95;;
70953;SDS011;58618;47.490;8.736;2023-08-30T13:37:33;2.50;;;1.90;;
70953;SDS011;58618;47.490;8.736;2023-08-30T13:40:21;2.75;;;1.85;;
70953;SDS011;58618;47.490;8.736;2023-08-30T13:43:08;3.57;;;2.30;;
70953;SDS011;58618;47.490;8.736;2023-08-30T13:45:58;2.55;;;1.80;;
70953;SDS011;58618;47.490;8.736;2023-08-30T13:48:47;2.60;;;2.03;;
70953;SDS011;58618;47.490;8.736;2023-08-30T13:51:34;2.42;;;2.17;;
70953;SDS011;58618;47.490;8.736;2023-08-30T13:54:22;2.80;;;2.10;;
70953;SDS011;58618;47.490;8.736;2023-08-30T13:57:09;2.97;;;2.13;;
70953;SDS011;58618;47.490;8.736;2023-08-30T13:59:56;2.33;;;2.10;;
70953;SDS011;58618;47.490;8.736;2023-08-30T14:02:44;3.58;;;2.55;;
70953;SDS011;58618;47.490;8.736;2023-08-30T14:05:32;3.33;;;2.45;;
70953;SDS011;58618;47.490;8.736;2023-08-30T14:08:20;4.70;;;3.10;;
70953;SDS011;58618;47.490;8.736;2023-08-30T14:11:07;3.67;;;3.00;;
70953;SDS011;58618;47.490;8.736;2023-08-30T14:13:54;3.50;;;2.75;;
70953;SDS011;58618;47.490;8.736;2023-08-30T14:16:41;4.65;;;2.80;;
70953;SDS011;58618;47.490;8.736;2023-08-30T14:19:29;5.93;;;2.70;;
70953;SDS011;58618;47.490;8.736;2023-08-30T14:22:17;2.80;;;2.50;;
70953;SDS011;58618;47.490;8.736;2023-08-30T14:25:05;2.93;;;2.37;;
70953;SDS011;58618;47.490;8.736;2023-08-30T14:27:53;3.30;;;2.10;;
70953;SDS011;58618;47.490;8.736;2023-08-30T14:30:41;3.92;;;2.30;;
70953;SDS011;58618;47.490;8.736;2023-08-30T14:33:29;2.92;;;2.33;;
70953;SDS011;58618;47.490;8.736;2023-08-30T14:36:16;3.22;;;2.60;;
70953;SDS011;58618;47.490;8.736;2023-08-30T14:39:05;2.50;;;2.30;;
70953;SDS011;58618;47.490;8.736;2023-08-30T14:41:52;3.70;;;2.53;;
70953;SDS011;58618;47.490;8.736;2023-08-30T14:44:39;4.30;;;2.53;;
70953;SDS011;58618;47.490;8.736;2023-08-30T14:47:26;2.85;;;2.40;;
70953;SDS011;58618;47.490;8.736;2023-08-30T14:50:15;3.67;;;2.20;;
70953;SDS011;58618;47.490;8.736;2023-08-30T14:53:03;3.63;;;2.10;;
70953;SDS011;58618;47.490;8.736;2023-08-30T14:55:53;2.50;;;2.30;;
70953;SDS011;58618;47.490;8.736;2023-08-30T14:58:41;3.47;;;2.13;;
70953;SDS011;58618;47.490;8.736;2023-08-30T15:01:28;2.80;;;2.30;;
70953;SDS011;58618;47.490;8.736;2023-08-30T15:04:15;2.42;;;1.90;;
70953;SDS011;58618;47.490;8.736;2023-08-30T15:07:03;2.23;;;1.80;;
70953;SDS011;58618;47.490;8.736;2023-08-30T15:09:50;2.15;;;1.77;;
70953;SDS011;58618;47.490;8.736;2023-08-30T15:12:39;2.30;;;1.90;;
70953;SDS011;58618;47.490;8.736;2023-08-30T15:15:26;3.63;;;1.90;;
70953;SDS011;58618;47.490;8.736;2023-08-30T15:18:16;2.47;;;1.90;;
70953;SDS011;58618;47.490;8.736;2023-08-30T15:21:03;2.00;;;1.77;;
70953;SDS011;58618;47.490;8.736;2023-08-30T15:23:50;2.40;;;2.00;;
70953;SDS011;58618;47.490;8.736;2023-08-30T15:26:38;2.08;;;1.88;;
70953;SDS011;58618;47.490;8.736;2023-08-30T15:29:27;2.28;;;1.92;;
70953;SDS011;58618;47.490;8.736;2023-08-30T15:32:14;2.55;;;2.00;;
70953;SDS011;58618;47.490;8.736;2023-08-30T15:35:02;4.13;;;1.97;;
70953;SDS011;58618;47.490;8.736;2023-08-30T15:37:50;2.97;;;2.03;;
70953;SDS011;58618;47.490;8.736;2023-08-30T15:40:37;2.83;;;2.20;;
70953;SDS011;58618;47.490;8.736;2023-08-30T15:43:25;3.83;;;2.90;;
70953;SDS011;58618;47.490;8.736;2023-08-30T15:46:13;4.50;;;2.22;;
70953;SDS011;58618;47.490;8.736;2023-08-30T15:49:01;2.67;;;2.07;;
70953;SDS011;58618;47.490;8.736;2023-08-30T15:51:48;2.38;;;1.73;;
70953;SDS011;58618;47.490;8.736;2023-08-30T15:54:36;2.58;;;2.00;;
70953;SDS011;58618;47.490;8.736;2023-08-30T15:57:23;2.63;;;2.00;;
70953;SDS011;58618;47.490;8.736;2023-08-30T16:00:11;2.45;;;2.13;;
70953;SDS011;58618;47.490;8.736;2023-08-30T16:03:00;3.87;;;1.97;;
70953;SDS011;58618;47.490;8.736;2023-08-30T16:05:47;2.10;;;1.90;;
70953;SDS011;58618;47.490;8.736;2023-08-30T16:08:35;3.05;;;2.00;;
70953;SDS011;58618;47.490;8.736;2023-08-30T16:11:22;2.85;;;2.30;;
70953;SDS011;58618;47.490;8.736;2023-08-30T16:14:09;3.30;;;2.40;;
70953;SDS011;58618;47.490;8.736;2023-08-30T16:16:57;3.77;;;2.47;;
70953;SDS011;58618;47.490;8.736;2023-08-30T16:19:45;2.33;;;2.13;;
70953;SDS011;58618;47.490;8.736;2023-08-30T16:22:33;3.13;;;2.30;;
70953;SDS011;58618;47.490;8.736;2023-08-30T16:25:20;7.10;;;2.58;;
70953;SDS011;58618;47.490;8.736;2023-08-30T16:28:07;4.28;;;2.50;;
70953;SDS011;58618;47.490;8.736;2023-08-30T16:30:57;2.50;;;2.30;;
70953;SDS011;58618;47.490;8.736;2023-08-30T16:33:46;3.15;;;2.20;;
70953;SDS011;58618;47.490;8.736;2023-08-30T16:36:34;4.55;;;2.58;;
70953;SDS011;58618;47.490;8.736;2023-08-30T16:39:22;3.28;;;2.75;;
70953;SDS011;58618;47.490;8.736;2023-08-30T16:42:10;4.07;;;2.40;;
70953;SDS011;58618;47.490;8.736;2023-08-30T16:44:58;3.53;;;2.37;;
70953;SDS011;58618;47.490;8.736;2023-08-30T16:47:45;5.03;;;2.70;;
70953;SDS011;58618;47.490;8.736;2023-08-30T16:50:32;2.80;;;2.50;;
70953;SDS011;58618;47.490;8.736;2023-08-30T16:53:21;2.53;;;2.28;;
70953;SDS011;58618;47.490;8.736;2023-08-30T16:56:09;4.30;;;2.78;;